sensor_id;sensor_type;location;lat;lon;timestamp;temperature;humidity
22008;DHT22;11168;56.976;24.168;2023-03-19T00:00:27;7.00;99.90
22008;DHT22;11168;56.976;24.168;2023-03-19T00:02:54;7.00;99.90
22008;DHT22;11168;56.976;24.168;2023-03-19T00:05:22;7.00;99.90
22008;DHT22;11168;56.976;24.168;2023-03-19T00:07:49;7.00;99.90
22008;DHT22;11168;56.976;24.168;2023-03-19T00:10:16;6.90;99.90
22008;DHT22;11168;56.976;24.168;2023-03-19T00:12:43;7.00;99.90
22008;DHT22;11168;56.976;24.168;2023-03-19T00:15:10;6.90;99.90
22008;DHT22;11168;56.976;24.168;2023-03-19T00:17:41;6.90;99.90
22008;DHT22;11168;56.976;24.168;2023-03-19T00:20:09;6.90;99.90
22008;DHT22;11168;56.976;24.168;2023-03-19T00:22:37;6.90;99.90
22008;DHT22;11168;56.976;24.168;2023-03-19T00:25:06;6.90;99.90
22008;DHT22;11168;56.976;24.168;2023-03-19T00:27:34;6.90;99.90
22008;DHT22;11168;56.976;24.168;2023-03-19T00:30:06;6.90;99.90
22008;DHT22;11168;56.976;24.168;2023-03-19T00:32:33;6.90;99.90
22008;DHT22;11168;56.976;24.168;2023-03-19T00:35:02;6.90;99.90
22008;DHT22;11168;56.976;24.168;2023-03-19T00:37:29;6.80;99.90
22008;DHT22;11168;56.976;24.168;2023-03-19T00:39:56;6.90;99.90
22008;DHT22;11168;56.976;24.168;2023-03-19T00:42:23;6.80;99.90
22008;DHT22;11168;56.976;24.168;2023-03-19T00:44:50;6.80;99.90
22008;DHT22;11168;56.976;24.168;2023-03-19T00:47:17;6.80;99.90
22008;DHT22;11168;56.976;24.168;2023-03-19T00:49:44;6.80;99.90
22008;DHT22;11168;56.976;24.168;2023-03-19T00:52:11;6.80;99.90
22008;DHT22;11168;56.976;24.168;2023-03-19T00:54:38;6.80;99.90
22008;DHT22;11168;56.976;24.168;2023-03-19T00:57:05;6.80;99.90
22008;DHT22;11168;56.976;24.168;2023-03-19T00:59:32;6.80;99.90
22008;DHT22;11168;56.976;24.168;2023-03-19T01:01:59;6.80;99.90
22008;DHT22;11168;56.976;24.168;2023-03-19T01:04:26;6.80;99.90
22008;DHT22;11168;56.976;24.168;2023-03-19T01:06:53;6.80;99.90
22008;DHT22;11168;56.976;24.168;2023-03-19T01:09:21;6.80;99.90
22008;DHT22;11168;56.976;24.168;2023-03-19T01:11:48;6.80;99.90
22008;DHT22;11168;56.976;24.168;2023-03-19T01:14:15;6.80;99.90
22008;DHT22;11168;56.976;24.168;2023-03-19T01:16:43;6.70;99.90
22008;DHT22;11168;56.976;24.168;2023-03-19T01:19:10;6.80;99.90
22008;DHT22;11168;56.976;24.168;2023-03-19T01:21:38;6.70;99.90
22008;DHT22;11168;56.976;24.168;2023-03-19T01:24:05;6.70;99.90
22008;DHT22;11168;56.976;24.168;2023-03-19T01:26:32;6.70;99.90
22008;DHT22;11168;56.976;24.168;2023-03-19T01:28:59;6.70;99.90
22008;DHT22;11168;56.976;24.168;2023-03-19T01:31:26;6.70;99.90
22008;DHT22;11168;56.976;24.168;2023-03-19T01:33:53;6.60;99.90
22008;DHT22;11168;56.976;24.168;2023-03-19T01:36:20;6.70;99.90
22008;DHT22;11168;56.976;24.168;2023-03-19T01:38:47;6.70;99.90
22008;DHT22;11168;56.976;24.168;2023-03-19T01:41:14;6.60;99.90
22008;DHT22;11168;56.976;24.168;2023-03-19T01:43:41;6.60;99.90
22008;DHT22;11168;56.976;24.168;2023-03-19T01:46:30;6.60;99.90
22008;DHT22;11168;56.976;24.168;2023-03-19T01:49:02;6.60;99.90
22008;DHT22;11168;56.976;24.168;2023-03-19T01:51:32;6.60;99.90
22008;DHT22;11168;56.976;24.168;2023-03-19T01:54:01;6.60;99.90
22008;DHT22;11168;56.976;24.168;2023-03-19T01:56:35;6.60;99.90
22008;DHT22;11168;56.976;24.168;2023-03-19T01:59:10;6.60;99.90
22008;DHT22;11168;56.976;24.168;2023-03-19T02:01:42;6.50;99.90
22008;DHT22;11168;56.976;24.168;2023-03-19T02:04:13;6.50;99.90
22008;DHT22;11168;56.976;24.168;2023-03-19T02:06:40;6.50;99.90
22008;DHT22;11168;56.976;24.168;2023-03-19T02:09:08;6.40;99.90
22008;DHT22;11168;56.976;24.168;2023-03-19T02:11:36;6.40;99.90
22008;DHT22;11168;56.976;24.168;2023-03-19T02:14:03;6.40;99.90
22008;DHT22;11168;56.976;24.168;2023-03-19T02:16:30;6.30;99.90
22008;DHT22;11168;56.976;24.168;2023-03-19T02:18:57;6.30;99.90
22008;DHT22;11168;56.976;24.168;2023-03-19T02:21:24;6.30;99.90
22008;DHT22;11168;56.976;24.168;2023-03-19T02:24:14;6.30;99.90
22008;DHT22;11168;56.976;24.168;2023-03-19T02:26:43;6.30;99.90
22008;DHT22;11168;56.976;24.168;2023-03-19T02:29:10;6.30;99.90
22008;DHT22;11168;56.976;24.168;2023-03-19T02:31:37;6.30;99.90
22008;DHT22;11168;56.976;24.168;2023-03-19T02:34:15;6.20;99.90
22008;DHT22;11168;56.976;24.168;2023-03-19T02:37:23;6.20;99.90
22008;DHT22;11168;56.976;24.168;2023-03-19T02:40:03;6.20;99.90
22008;DHT22;11168;56.976;24.168;2023-03-19T02:42:33;6.10;99.90
22008;DHT22;11168;56.976;24.168;2023-03-19T02:45:01;6.10;99.90
22008;DHT22;11168;56.976;24.168;2023-03-19T02:47:28;6.00;99.90
22008;DHT22;11168;56.976;24.168;2023-03-19T02:49:54;6.00;99.90
22008;DHT22;11168;56.976;24.168;2023-03-19T02:52:22;6.00;99.90
22008;DHT22;11168;56.976;24.168;2023-03-19T02:54:49;6.00;99.90
22008;DHT22;11168;56.976;24.168;2023-03-19T02:57:16;5.90;99.90
22008;DHT22;11168;56.976;24.168;2023-03-19T02:59:43;5.90;99.90
22008;DHT22;11168;56.976;24.168;2023-03-19T03:02:10;6.00;99.90
22008;DHT22;11168;56.976;24.168;2023-03-19T03:04:37;5.90;99.90
22008;DHT22;11168;56.976;24.168;2023-03-19T03:07:04;5.90;99.90
22008;DHT22;11168;56.976;24.168;2023-03-19T03:09:32;5.90;99.90
22008;DHT22;11168;56.976;24.168;2023-03-19T03:11:59;5.90;99.90
22008;DHT22;11168;56.976;24.168;2023-03-19T03:14:26;5.90;99.90
22008;DHT22;11168;56.976;24.168;2023-03-19T03:16:52;5.80;99.90
22008;DHT22;11168;56.976;24.168;2023-03-19T03:19:20;5.80;99.90
22008;DHT22;11168;56.976;24.168;2023-03-19T03:21:47;5.80;99.90
22008;DHT22;11168;56.976;24.168;2023-03-19T03:24:14;5.80;99.90
22008;DHT22;11168;56.976;24.168;2023-03-19T03:26:41;5.70;99.90
22008;DHT22;11168;56.976;24.168;2023-03-19T03:29:08;5.70;99.90
22008;DHT22;11168;56.976;24.168;2023-03-19T03:31:35;5.70;99.90
22008;DHT22;11168;56.976;24.168;2023-03-19T03:34:03;5.60;99.90
22008;DHT22;11168;56.976;24.168;2023-03-19T03:36:30;5.60;99.90
22008;DHT22;11168;56.976;24.168;2023-03-19T03:38:58;5.60;99.90
22008;DHT22;11168;56.976;24.168;2023-03-19T03:41:25;5.60;99.90
22008;DHT22;11168;56.976;24.168;2023-03-19T03:43:52;5.60;99.90
22008;DHT22;11168;56.976;24.168;2023-03-19T03:46:19;5.60;99.90
22008;DHT22;11168;56.976;24.168;2023-03-19T03:48:46;5.60;99.90
22008;DHT22;11168;56.976;24.168;2023-03-19T03:51:15;5.70;99.90
22008;DHT22;11168;56.976;24.168;2023-03-19T03:53:41;5.70;99.90
22008;DHT22;11168;56.976;24.168;2023-03-19T03:56:10;5.60;99.90
22008;DHT22;11168;56.976;24.168;2023-03-19T03:58:37;5.70;99.90
22008;DHT22;11168;56.976;24.168;2023-03-19T04:01:04;5.70;99.90
22008;DHT22;11168;56.976;24.168;2023-03-19T04:03:32;5.70;99.90
22008;DHT22;11168;56.976;24.168;2023-03-19T04:05:59;5.60;99.90
22008;DHT22;11168;56.976;24.168;2023-03-19T04:08:26;5.60;99.90
22008;DHT22;11168;56.976;24.168;2023-03-19T04:10:53;5.60;99.90
22008;DHT22;11168;56.976;24.168;2023-03-19T04:13:20;5.60;99.90
22008;DHT22;11168;56.976;24.168;2023-03-19T04:15:47;5.60;99.90
22008;DHT22;11168;56.976;24.168;2023-03-19T04:18:14;5.60;99.90
22008;DHT22;11168;56.976;24.168;2023-03-19T04:20:41;5.60;99.90
22008;DHT22;11168;56.976;24.168;2023-03-19T04:23:09;5.60;99.90
22008;DHT22;11168;56.976;24.168;2023-03-19T04:25:38;5.60;99.90
22008;DHT22;11168;56.976;24.168;2023-03-19T04:28:06;5.60;99.90
22008;DHT22;11168;56.976;24.168;2023-03-19T04:30:34;5.60;99.90
22008;DHT22;11168;56.976;24.168;2023-03-19T04:33:02;5.60;99.90
22008;DHT22;11168;56.976;24.168;2023-03-19T04:35:30;5.60;99.90
22008;DHT22;11168;56.976;24.168;2023-03-19T04:37:57;5.60;99.90
22008;DHT22;11168;56.976;24.168;2023-03-19T04:40:24;5.60;99.90
22008;DHT22;11168;56.976;24.168;2023-03-19T04:42:51;5.60;99.90
22008;DHT22;11168;56.976;24.168;2023-03-19T04:45:18;5.60;99.90
22008;DHT22;11168;56.976;24.168;2023-03-19T04:47:45;5.60;99.90
22008;DHT22;11168;56.976;24.168;2023-03-19T04:50:12;5.60;99.90
22008;DHT22;11168;56.976;24.168;2023-03-19T04:52:39;5.60;99.90
22008;DHT22;11168;56.976;24.168;2023-03-19T04:55:07;5.60;99.90
22008;DHT22;11168;56.976;24.168;2023-03-19T04:57:34;5.60;99.90
22008;DHT22;11168;56.976;24.168;2023-03-19T05:00:01;5.60;99.90
22008;DHT22;11168;56.976;24.168;2023-03-19T05:02:30;5.70;99.90
22008;DHT22;11168;56.976;24.168;2023-03-19T05:04:57;5.70;99.90
22008;DHT22;11168;56.976;24.168;2023-03-19T05:07:24;5.70;99.90
22008;DHT22;11168;56.976;24.168;2023-03-19T05:09:52;5.60;99.90
22008;DHT22;11168;56.976;24.168;2023-03-19T05:12:18;5.70;99.90
22008;DHT22;11168;56.976;24.168;2023-03-19T05:14:45;5.70;99.90
22008;DHT22;11168;56.976;24.168;2023-03-19T05:17:12;5.70;99.90
22008;DHT22;11168;56.976;24.168;2023-03-19T05:19:41;5.70;99.90
22008;DHT22;11168;56.976;24.168;2023-03-19T05:22:09;5.70;99.90
22008;DHT22;11168;56.976;24.168;2023-03-19T05:24:36;5.70;99.90
22008;DHT22;11168;56.976;24.168;2023-03-19T05:27:03;5.80;99.90
22008;DHT22;11168;56.976;24.168;2023-03-19T05:29:30;5.80;99.90
22008;DHT22;11168;56.976;24.168;2023-03-19T05:31:57;5.90;99.90
22008;DHT22;11168;56.976;24.168;2023-03-19T05:34:25;5.90;99.90
22008;DHT22;11168;56.976;24.168;2023-03-19T05:36:52;5.80;99.90
22008;DHT22;11168;56.976;24.168;2023-03-19T05:39:19;5.90;99.90
22008;DHT22;11168;56.976;24.168;2023-03-19T05:41:46;5.90;99.90
22008;DHT22;11168;56.976;24.168;2023-03-19T05:44:13;5.90;99.90
22008;DHT22;11168;56.976;24.168;2023-03-19T05:46:40;5.90;99.90
22008;DHT22;11168;56.976;24.168;2023-03-19T05:49:08;6.00;99.90
22008;DHT22;11168;56.976;24.168;2023-03-19T05:51:35;6.00;99.90
22008;DHT22;11168;56.976;24.168;2023-03-19T05:54:02;6.00;99.90
22008;DHT22;11168;56.976;24.168;2023-03-19T05:56:29;6.00;99.90
22008;DHT22;11168;56.976;24.168;2023-03-19T05:58:56;6.00;99.90
22008;DHT22;11168;56.976;24.168;2023-03-19T06:01:23;6.00;99.90
22008;DHT22;11168;56.976;24.168;2023-03-19T06:03:50;6.00;99.90
22008;DHT22;11168;56.976;24.168;2023-03-19T06:06:17;6.00;99.90
22008;DHT22;11168;56.976;24.168;2023-03-19T06:08:44;6.00;99.90
22008;DHT22;11168;56.976;24.168;2023-03-19T06:11:11;6.10;99.90
22008;DHT22;11168;56.976;24.168;2023-03-19T06:13:38;6.10;99.90
22008;DHT22;11168;56.976;24.168;2023-03-19T06:16:05;6.10;99.90
22008;DHT22;11168;56.976;24.168;2023-03-19T06:18:32;6.10;99.90
22008;DHT22;11168;56.976;24.168;2023-03-19T06:20:59;6.20;99.90
22008;DHT22;11168;56.976;24.168;2023-03-19T06:23:26;6.10;99.90
22008;DHT22;11168;56.976;24.168;2023-03-19T06:25:53;6.20;99.90
22008;DHT22;11168;56.976;24.168;2023-03-19T06:28:20;6.20;99.90
22008;DHT22;11168;56.976;24.168;2023-03-19T06:30:47;6.30;99.90
22008;DHT22;11168;56.976;24.168;2023-03-19T06:33:14;6.30;99.90
22008;DHT22;11168;56.976;24.168;2023-03-19T06:35:42;6.30;99.90
22008;DHT22;11168;56.976;24.168;2023-03-19T06:38:09;6.40;99.90
22008;DHT22;11168;56.976;24.168;2023-03-19T06:40:36;6.40;99.90
22008;DHT22;11168;56.976;24.168;2023-03-19T06:43:03;6.50;99.90
22008;DHT22;11168;56.976;24.168;2023-03-19T06:45:30;6.50;99.90
22008;DHT22;11168;56.976;24.168;2023-03-19T06:47:57;6.50;99.90
22008;DHT22;11168;56.976;24.168;2023-03-19T06:50:24;6.50;99.90
22008;DHT22;11168;56.976;24.168;2023-03-19T06:52:51;6.50;99.90
22008;DHT22;11168;56.976;24.168;2023-03-19T06:55:18;6.50;99.90
22008;DHT22;11168;56.976;24.168;2023-03-19T06:57:49;6.50;99.90
22008;DHT22;11168;56.976;24.168;2023-03-19T07:00:17;6.50;99.90
22008;DHT22;11168;56.976;24.168;2023-03-19T07:02:44;6.50;99.90
22008;DHT22;11168;56.976;24.168;2023-03-19T07:05:11;6.50;99.90
22008;DHT22;11168;56.976;24.168;2023-03-19T07:07:39;6.50;99.90
22008;DHT22;11168;56.976;24.168;2023-03-19T07:10:06;6.60;99.90
22008;DHT22;11168;56.976;24.168;2023-03-19T07:12:35;6.60;99.90
22008;DHT22;11168;56.976;24.168;2023-03-19T07:15:02;6.70;99.90
22008;DHT22;11168;56.976;24.168;2023-03-19T07:17:30;6.70;99.90
22008;DHT22;11168;56.976;24.168;2023-03-19T07:19:57;6.70;99.90
22008;DHT22;11168;56.976;24.168;2023-03-19T07:22:24;6.70;99.90
22008;DHT22;11168;56.976;24.168;2023-03-19T07:24:51;6.80;99.90
22008;DHT22;11168;56.976;24.168;2023-03-19T07:27:18;6.80;99.90
22008;DHT22;11168;56.976;24.168;2023-03-19T07:29:45;6.80;99.90
22008;DHT22;11168;56.976;24.168;2023-03-19T07:32:12;6.80;99.90
22008;DHT22;11168;56.976;24.168;2023-03-19T07:34:39;6.80;99.90
22008;DHT22;11168;56.976;24.168;2023-03-19T07:37:06;6.70;99.90
22008;DHT22;11168;56.976;24.168;2023-03-19T07:39:33;6.80;99.90
22008;DHT22;11168;56.976;24.168;2023-03-19T07:42:00;6.80;99.90
22008;DHT22;11168;56.976;24.168;2023-03-19T07:44:27;6.80;99.90
22008;DHT22;11168;56.976;24.168;2023-03-19T07:46:54;6.80;99.90
22008;DHT22;11168;56.976;24.168;2023-03-19T07:49:21;6.80;99.90
22008;DHT22;11168;56.976;24.168;2023-03-19T07:51:48;6.90;99.90
22008;DHT22;11168;56.976;24.168;2023-03-19T07:54:15;6.90;99.90
22008;DHT22;11168;56.976;24.168;2023-03-19T07:56:42;6.90;99.90
22008;DHT22;11168;56.976;24.168;2023-03-19T07:59:09;6.90;99.90
22008;DHT22;11168;56.976;24.168;2023-03-19T08:01:37;7.00;99.90
22008;DHT22;11168;56.976;24.168;2023-03-19T08:04:04;7.00;99.90
22008;DHT22;11168;56.976;24.168;2023-03-19T08:06:31;7.00;99.90
22008;DHT22;11168;56.976;24.168;2023-03-19T08:08:58;7.00;99.90
22008;DHT22;11168;56.976;24.168;2023-03-19T08:11:25;7.00;99.90
22008;DHT22;11168;56.976;24.168;2023-03-19T08:13:52;7.00;99.90
22008;DHT22;11168;56.976;24.168;2023-03-19T08:16:19;7.10;99.90
22008;DHT22;11168;56.976;24.168;2023-03-19T08:18:45;7.10;99.90
22008;DHT22;11168;56.976;24.168;2023-03-19T08:21:13;7.10;99.90
22008;DHT22;11168;56.976;24.168;2023-03-19T08:23:41;7.20;99.90
22008;DHT22;11168;56.976;24.168;2023-03-19T08:26:08;7.20;99.90
22008;DHT22;11168;56.976;24.168;2023-03-19T08:28:34;7.30;99.90
22008;DHT22;11168;56.976;24.168;2023-03-19T08:31:10;7.20;99.90
22008;DHT22;11168;56.976;24.168;2023-03-19T08:33:38;7.30;99.90
22008;DHT22;11168;56.976;24.168;2023-03-19T08:36:10;7.30;99.90
22008;DHT22;11168;56.976;24.168;2023-03-19T08:38:38;7.40;99.90
22008;DHT22;11168;56.976;24.168;2023-03-19T08:41:05;7.40;99.90
22008;DHT22;11168;56.976;24.168;2023-03-19T08:43:33;7.50;99.90
22008;DHT22;11168;56.976;24.168;2023-03-19T08:46:01;7.50;99.90
22008;DHT22;11168;56.976;24.168;2023-03-19T08:48:28;7.60;99.90
22008;DHT22;11168;56.976;24.168;2023-03-19T08:50:56;7.60;99.90
22008;DHT22;11168;56.976;24.168;2023-03-19T08:53:24;7.60;99.90
22008;DHT22;11168;56.976;24.168;2023-03-19T08:55:57;7.60;99.90
22008;DHT22;11168;56.976;24.168;2023-03-19T08:58:24;7.60;99.90
22008;DHT22;11168;56.976;24.168;2023-03-19T09:00:52;7.60;99.90
22008;DHT22;11168;56.976;24.168;2023-03-19T09:03:19;7.60;99.90
22008;DHT22;11168;56.976;24.168;2023-03-19T09:05:47;7.60;99.90
22008;DHT22;11168;56.976;24.168;2023-03-19T09:08:14;7.60;99.90
22008;DHT22;11168;56.976;24.168;2023-03-19T09:10:41;7.60;99.90
22008;DHT22;11168;56.976;24.168;2023-03-19T09:13:08;7.70;99.90
22008;DHT22;11168;56.976;24.168;2023-03-19T09:15:35;7.60;99.90
22008;DHT22;11168;56.976;24.168;2023-03-19T09:18:02;7.50;99.90
22008;DHT22;11168;56.976;24.168;2023-03-19T09:20:29;7.60;99.90
22008;DHT22;11168;56.976;24.168;2023-03-19T09:22:56;7.60;99.90
22008;DHT22;11168;56.976;24.168;2023-03-19T09:25:23;7.60;99.90
22008;DHT22;11168;56.976;24.168;2023-03-19T09:27:50;7.70;99.90
22008;DHT22;11168;56.976;24.168;2023-03-19T09:30:18;7.80;99.90
22008;DHT22;11168;56.976;24.168;2023-03-19T09:32:45;7.80;99.90
22008;DHT22;11168;56.976;24.168;2023-03-19T09:35:12;7.90;99.90
22008;DHT22;11168;56.976;24.168;2023-03-19T09:37:39;7.90;99.90
22008;DHT22;11168;56.976;24.168;2023-03-19T09:40:10;7.90;99.90
22008;DHT22;11168;56.976;24.168;2023-03-19T09:43:04;7.90;99.90
22008;DHT22;11168;56.976;24.168;2023-03-19T09:45:34;7.90;99.90
22008;DHT22;11168;56.976;24.168;2023-03-19T09:48:05;7.90;99.90
22008;DHT22;11168;56.976;24.168;2023-03-19T09:50:34;7.90;99.90
22008;DHT22;11168;56.976;24.168;2023-03-19T09:53:29;7.80;99.90
22008;DHT22;11168;56.976;24.168;2023-03-19T09:56:02;7.90;99.90
22008;DHT22;11168;56.976;24.168;2023-03-19T09:58:33;7.80;99.90
22008;DHT22;11168;56.976;24.168;2023-03-19T10:01:01;7.80;99.90
22008;DHT22;11168;56.976;24.168;2023-03-19T10:06:24;7.80;99.90
22008;DHT22;11168;56.976;24.168;2023-03-19T10:14:54;7.90;99.90
22008;DHT22;11168;56.976;24.168;2023-03-19T10:17:42;7.80;99.90
22008;DHT22;11168;56.976;24.168;2023-03-19T10:22:49;7.90;99.90
22008;DHT22;11168;56.976;24.168;2023-03-19T10:25:25;7.80;99.90
22008;DHT22;11168;56.976;24.168;2023-03-19T10:27:59;7.80;99.90
22008;DHT22;11168;56.976;24.168;2023-03-19T10:30:29;7.80;99.90
22008;DHT22;11168;56.976;24.168;2023-03-19T10:33:22;7.70;99.90
22008;DHT22;11168;56.976;24.168;2023-03-19T10:36:04;7.80;99.90
22008;DHT22;11168;56.976;24.168;2023-03-19T10:38:39;7.80;99.90
22008;DHT22;11168;56.976;24.168;2023-03-19T10:44:14;7.80;99.90
22008;DHT22;11168;56.976;24.168;2023-03-19T10:46:42;7.80;99.90
22008;DHT22;11168;56.976;24.168;2023-03-19T10:49:13;7.80;99.90
22008;DHT22;11168;56.976;24.168;2023-03-19T10:51:45;7.90;99.90
22008;DHT22;11168;56.976;24.168;2023-03-19T10:56:46;7.90;99.90
22008;DHT22;11168;56.976;24.168;2023-03-19T11:01:56;8.00;99.90
22008;DHT22;11168;56.976;24.168;2023-03-19T11:04:25;8.00;99.90
22008;DHT22;11168;56.976;24.168;2023-03-19T11:07:02;8.00;99.90
22008;DHT22;11168;56.976;24.168;2023-03-19T11:09:35;8.10;99.90
22008;DHT22;11168;56.976;24.168;2023-03-19T11:12:20;8.10;99.90
22008;DHT22;11168;56.976;24.168;2023-03-19T11:14:51;8.20;99.90
22008;DHT22;11168;56.976;24.168;2023-03-19T11:17:39;8.10;99.90
22008;DHT22;11168;56.976;24.168;2023-03-19T11:20:23;8.20;99.90
22008;DHT22;11168;56.976;24.168;2023-03-19T11:22:55;8.20;99.90
22008;DHT22;11168;56.976;24.168;2023-03-19T11:25:33;8.20;99.90
22008;DHT22;11168;56.976;24.168;2023-03-19T11:28:11;8.30;99.90
22008;DHT22;11168;56.976;24.168;2023-03-19T11:30:48;8.40;99.90
22008;DHT22;11168;56.976;24.168;2023-03-19T11:33:31;8.40;99.90
22008;DHT22;11168;56.976;24.168;2023-03-19T11:39:06;8.50;99.90
22008;DHT22;11168;56.976;24.168;2023-03-19T11:47:10;8.50;99.90
22008;DHT22;11168;56.976;24.168;2023-03-19T11:53:13;8.40;99.90
22008;DHT22;11168;56.976;24.168;2023-03-19T12:04:16;8.40;99.90
22008;DHT22;11168;56.976;24.168;2023-03-19T12:09:34;8.40;99.90
22008;DHT22;11168;56.976;24.168;2023-03-19T12:12:08;8.40;99.90
22008;DHT22;11168;56.976;24.168;2023-03-19T12:15:02;8.40;99.90
22008;DHT22;11168;56.976;24.168;2023-03-19T12:18:06;8.50;99.90
22008;DHT22;11168;56.976;24.168;2023-03-19T12:29:28;8.70;99.90
22008;DHT22;11168;56.976;24.168;2023-03-19T12:32:01;8.80;99.90
22008;DHT22;11168;56.976;24.168;2023-03-19T12:34:42;8.80;99.90
22008;DHT22;11168;56.976;24.168;2023-03-19T12:42:42;8.80;99.90
22008;DHT22;11168;56.976;24.168;2023-03-19T12:48:49;8.90;99.90
22008;DHT22;11168;56.976;24.168;2023-03-19T12:50:54;8.90;99.90
22008;DHT22;11168;56.976;24.168;2023-03-19T12:53:42;8.90;99.90
22008;DHT22;11168;56.976;24.168;2023-03-19T12:56:51;8.90;99.90
22008;DHT22;11168;56.976;24.168;2023-03-19T13:04:50;9.00;99.90
22008;DHT22;11168;56.976;24.168;2023-03-19T13:10:24;9.00;99.90
22008;DHT22;11168;56.976;24.168;2023-03-19T13:12:53;9.00;99.90
22008;DHT22;11168;56.976;24.168;2023-03-19T13:15:32;9.00;99.90
22008;DHT22;11168;56.976;24.168;2023-03-19T13:26:49;9.20;99.90
22008;DHT22;11168;56.976;24.168;2023-03-19T13:29:27;9.20;99.90
22008;DHT22;11168;56.976;24.168;2023-03-19T13:32:21;9.30;99.90
22008;DHT22;11168;56.976;24.168;2023-03-19T13:34:49;9.30;99.90
22008;DHT22;11168;56.976;24.168;2023-03-19T13:37:18;9.40;99.90
22008;DHT22;11168;56.976;24.168;2023-03-19T13:39:47;9.30;99.90
22008;DHT22;11168;56.976;24.168;2023-03-19T13:44:53;9.40;99.90
22008;DHT22;11168;56.976;24.168;2023-03-19T13:55:29;9.40;99.90
22008;DHT22;11168;56.976;24.168;2023-03-19T14:03:32;9.60;99.90
22008;DHT22;11168;56.976;24.168;2023-03-19T14:06:00;9.60;99.90
22008;DHT22;11168;56.976;24.168;2023-03-19T14:08:32;9.60;99.90
22008;DHT22;11168;56.976;24.168;2023-03-19T14:11:07;9.60;99.90
22008;DHT22;11168;56.976;24.168;2023-03-19T14:13:41;9.60;99.90
22008;DHT22;11168;56.976;24.168;2023-03-19T14:16:18;9.70;99.90
22008;DHT22;11168;56.976;24.168;2023-03-19T14:18:48;9.70;99.90
22008;DHT22;11168;56.976;24.168;2023-03-19T14:27:24;9.70;99.90
22008;DHT22;11168;56.976;24.168;2023-03-19T14:29:54;9.60;99.90
22008;DHT22;11168;56.976;24.168;2023-03-19T14:32:27;9.70;99.90
22008;DHT22;11168;56.976;24.168;2023-03-19T14:34:57;9.70;99.90
22008;DHT22;11168;56.976;24.168;2023-03-19T14:37:30;9.60;99.90
22008;DHT22;11168;56.976;24.168;2023-03-19T14:40:19;9.60;99.90
22008;DHT22;11168;56.976;24.168;2023-03-19T14:43:04;9.60;99.90
22008;DHT22;11168;56.976;24.168;2023-03-19T14:57:06;9.60;99.90
22008;DHT22;11168;56.976;24.168;2023-03-19T14:59:38;9.60;99.90
22008;DHT22;11168;56.976;24.168;2023-03-19T15:02:39;9.60;99.90
22008;DHT22;11168;56.976;24.168;2023-03-19T15:05:14;9.50;99.90
22008;DHT22;11168;56.976;24.168;2023-03-19T15:07:44;9.50;99.90
22008;DHT22;11168;56.976;24.168;2023-03-19T15:10:18;9.50;99.90
22008;DHT22;11168;56.976;24.168;2023-03-19T15:13:28;9.50;99.90
22008;DHT22;11168;56.976;24.168;2023-03-19T15:18:41;9.50;99.90
22008;DHT22;11168;56.976;24.168;2023-03-19T15:21:08;9.50;99.90
22008;DHT22;11168;56.976;24.168;2023-03-19T15:23:37;9.60;99.90
22008;DHT22;11168;56.976;24.168;2023-03-19T15:26:05;9.60;99.90
22008;DHT22;11168;56.976;24.168;2023-03-19T15:28:48;9.60;99.90
22008;DHT22;11168;56.976;24.168;2023-03-19T15:31:16;9.60;99.90
22008;DHT22;11168;56.976;24.168;2023-03-19T15:34:16;9.60;99.90
22008;DHT22;11168;56.976;24.168;2023-03-19T15:36:44;9.60;99.90
22008;DHT22;11168;56.976;24.168;2023-03-19T15:39:15;9.60;99.90
22008;DHT22;11168;56.976;24.168;2023-03-19T15:41:45;9.60;99.90
22008;DHT22;11168;56.976;24.168;2023-03-19T15:44:18;9.60;99.90
22008;DHT22;11168;56.976;24.168;2023-03-19T15:46:48;9.60;99.90
22008;DHT22;11168;56.976;24.168;2023-03-19T15:49:27;9.60;99.90
22008;DHT22;11168;56.976;24.168;2023-03-19T15:51:58;9.60;99.90
22008;DHT22;11168;56.976;24.168;2023-03-19T15:54:27;9.60;99.90
22008;DHT22;11168;56.976;24.168;2023-03-19T15:56:55;9.60;99.90
22008;DHT22;11168;56.976;24.168;2023-03-19T15:59:25;9.60;99.90
22008;DHT22;11168;56.976;24.168;2023-03-19T16:01:59;9.60;99.90
22008;DHT22;11168;56.976;24.168;2023-03-19T16:04:28;9.60;99.90
22008;DHT22;11168;56.976;24.168;2023-03-19T16:06:57;9.60;99.90
22008;DHT22;11168;56.976;24.168;2023-03-19T16:09:33;9.60;99.90
22008;DHT22;11168;56.976;24.168;2023-03-19T16:12:00;9.60;99.90
22008;DHT22;11168;56.976;24.168;2023-03-19T16:14:43;9.60;99.90
22008;DHT22;11168;56.976;24.168;2023-03-19T16:17:16;9.60;99.90
22008;DHT22;11168;56.976;24.168;2023-03-19T16:19:50;9.60;99.90
22008;DHT22;11168;56.976;24.168;2023-03-19T16:22:23;9.50;99.90
22008;DHT22;11168;56.976;24.168;2023-03-19T16:24:51;9.50;99.90
22008;DHT22;11168;56.976;24.168;2023-03-19T16:27:36;9.60;99.90
22008;DHT22;11168;56.976;24.168;2023-03-19T16:30:24;9.60;99.90
22008;DHT22;11168;56.976;24.168;2023-03-19T16:33:02;9.50;99.90
22008;DHT22;11168;56.976;24.168;2023-03-19T16:35:31;9.50;99.90
22008;DHT22;11168;56.976;24.168;2023-03-19T16:38:25;9.60;99.90
22008;DHT22;11168;56.976;24.168;2023-03-19T16:41:15;9.60;99.90
22008;DHT22;11168;56.976;24.168;2023-03-19T16:43:44;9.60;99.90
22008;DHT22;11168;56.976;24.168;2023-03-19T16:46:12;9.60;99.90
22008;DHT22;11168;56.976;24.168;2023-03-19T16:48:43;9.50;99.90
22008;DHT22;11168;56.976;24.168;2023-03-19T16:51:12;9.60;99.90
22008;DHT22;11168;56.976;24.168;2023-03-19T16:53:44;9.60;99.90
22008;DHT22;11168;56.976;24.168;2023-03-19T16:56:13;9.60;99.90
22008;DHT22;11168;56.976;24.168;2023-03-19T16:58:44;9.60;99.90
22008;DHT22;11168;56.976;24.168;2023-03-19T17:01:20;9.60;99.90
22008;DHT22;11168;56.976;24.168;2023-03-19T17:03:48;9.60;99.90
22008;DHT22;11168;56.976;24.168;2023-03-19T17:06:20;9.60;99.90
22008;DHT22;11168;56.976;24.168;2023-03-19T17:08:55;9.70;99.90
22008;DHT22;11168;56.976;24.168;2023-03-19T17:11:30;9.70;99.90
22008;DHT22;11168;56.976;24.168;2023-03-19T17:14:01;9.70;99.90
22008;DHT22;11168;56.976;24.168;2023-03-19T17:16:29;9.70;99.90
22008;DHT22;11168;56.976;24.168;2023-03-19T17:18:56;9.70;99.90
22008;DHT22;11168;56.976;24.168;2023-03-19T17:21:29;9.70;99.90
22008;DHT22;11168;56.976;24.168;2023-03-19T17:23:56;9.70;99.90
22008;DHT22;11168;56.976;24.168;2023-03-19T17:26:25;9.70;99.90
22008;DHT22;11168;56.976;24.168;2023-03-19T17:28:53;9.70;99.90
22008;DHT22;11168;56.976;24.168;2023-03-19T17:31:24;9.70;99.90
22008;DHT22;11168;56.976;24.168;2023-03-19T17:33:53;9.70;99.90
22008;DHT22;11168;56.976;24.168;2023-03-19T17:36:21;9.70;99.90
22008;DHT22;11168;56.976;24.168;2023-03-19T17:38:48;9.70;99.90
22008;DHT22;11168;56.976;24.168;2023-03-19T17:41:17;9.70;99.90
22008;DHT22;11168;56.976;24.168;2023-03-19T17:43:46;9.70;99.90